createdAt,value
2019-01-29T00:01:12.416Z,93774.61
2019-01-29T00:04:20.307Z,93770.94
2019-01-29T00:07:27.902Z,93784.68
2019-01-29T00:10:36.823Z,93787.18
2019-01-29T00:13:44.425Z,93785.59
2019-01-29T00:16:52.355Z,93790.88
2019-01-29T00:19:59.850Z,93794.10
2019-01-29T00:23:07.678Z,93795.94
2019-01-29T00:26:15.521Z,93797.03
2019-01-29T00:29:23.095Z,93802.14
2019-01-29T00:32:31.173Z,93804.79
2019-01-29T00:35:38.743Z,93808.47
2019-01-29T00:38:46.464Z,93813.06
2019-01-29T00:41:53.998Z,93821.94
2019-01-29T00:45:01.782Z,93820.22
2019-01-29T00:48:09.334Z,93817.78
2019-01-29T00:51:16.774Z,93827.54
2019-01-29T00:54:24.378Z,93820.45
2019-01-29T00:57:32.033Z,93832.66
2019-01-29T01:00:39.544Z,93832.91
2019-01-29T01:03:47.387Z,93833.92
2019-01-29T01:06:54.906Z,93840.92
2019-01-29T01:10:03.097Z,93844.66
2019-01-29T01:13:11.195Z,93843.58
2019-01-29T01:16:21.620Z,93845.91
2019-01-29T01:19:29.179Z,93849.02
2019-01-29T01:22:36.722Z,93855.80
2019-01-29T01:25:44.238Z,93861.36
2019-01-29T01:28:51.817Z,93866.75
2019-01-29T01:31:59.327Z,93872.23
2019-01-29T01:35:07.132Z,93879.61
2019-01-29T01:38:14.853Z,93878.67
2019-01-29T01:41:22.465Z,93889.06
2019-01-29T01:44:30.071Z,93891.73
2019-01-29T01:47:37.658Z,93895.52
2019-01-29T01:50:45.270Z,93890.84
2019-01-29T01:53:53.597Z,93896.96
2019-01-29T01:57:01.561Z,93898.19
2019-01-29T02:00:18.215Z,93896.16
2019-01-29T02:03:25.889Z,93896.41
2019-01-29T02:06:33.789Z,93899.48
2019-01-29T02:09:44.318Z,93903.92
2019-01-29T02:12:52.355Z,93910.44
2019-01-29T02:15:59.926Z,93912.67
2019-01-29T02:19:07.604Z,93917.61
2019-01-29T02:22:15.432Z,93925.27
2019-01-29T02:25:22.992Z,93929.95
2019-01-29T02:28:30.853Z,93932.56
2019-01-29T02:31:38.395Z,93940.28
2019-01-29T02:34:46.360Z,93940.63
2019-01-29T02:37:54.170Z,93945.39
2019-01-29T02:41:01.992Z,93943.89
2019-01-29T02:44:09.884Z,93944.38
2019-01-29T02:47:17.635Z,93947.56
2019-01-29T02:50:25.497Z,93949.63
2019-01-29T02:53:33.077Z,93956.58
2019-01-29T02:56:40.601Z,93960.23
2019-01-29T02:59:48.126Z,93960.97
2019-01-29T03:02:56.006Z,93965.54
2019-01-29T03:06:04.056Z,93971.99
2019-01-29T03:09:11.829Z,93977.09
2019-01-29T03:12:19.717Z,93968.76
2019-01-29T03:15:30.350Z,93978.00
2019-01-29T03:18:38.179Z,93978.41
2019-01-29T03:21:45.702Z,93977.09
2019-01-29T03:24:53.416Z,93984.52
2019-01-29T03:28:01.396Z,93994.55
2019-01-29T03:31:09.238Z,94000.94
2019-01-29T03:34:16.673Z,94006.84
2019-01-29T03:37:24.229Z,94008.86
2019-01-29T03:40:31.777Z,94008.23
2019-01-29T03:43:39.351Z,94010.63
2019-01-29T03:46:47.176Z,94007.33
2019-01-29T03:49:54.975Z,94013.84
2019-01-29T03:53:02.511Z,94012.67
2019-01-29T03:56:10.013Z,94016.93
2019-01-29T03:59:17.827Z,94025.62
2019-01-29T04:02:25.423Z,94024.16
2019-01-29T04:05:34.357Z,94032.37
2019-01-29T04:08:41.807Z,94037.36
2019-01-29T04:11:49.315Z,94048.56
2019-01-29T04:14:59.701Z,94047.67
2019-01-29T04:18:10.449Z,94045.63
2019-01-29T04:21:20.586Z,94042.98
2019-01-29T04:24:28.323Z,94052.36
2019-01-29T04:27:36.211Z,94057.18
2019-01-29T04:30:44.091Z,94049.86
2019-01-29T04:33:52.006Z,94057.50
2019-01-29T04:37:00.114Z,94053.69
2019-01-29T04:40:11.197Z,94057.41
2019-01-29T04:43:18.799Z,94053.09
2019-01-29T04:46:26.364Z,94054.09
2019-01-29T04:49:34.220Z,94053.87
2019-01-29T04:52:42.153Z,94058.55
2019-01-29T04:55:50.075Z,94058.80
2019-01-29T04:58:58.321Z,94049.41
2019-01-29T05:05:21.285Z,94055.92
2019-01-29T05:08:29.273Z,94060.80
2019-01-29T05:11:36.582Z,94053.17
2019-01-29T05:14:44.275Z,94062.00
2019-01-29T05:17:51.710Z,94066.52
2019-01-29T05:20:59.103Z,94065.52
2019-01-29T05:24:07.281Z,94061.48
2019-01-29T05:27:14.888Z,94067.74
2019-01-29T05:30:34.781Z,94074.72
2019-01-29T05:33:42.102Z,94078.76
2019-01-29T05:36:49.614Z,94086.25
2019-01-29T05:39:56.942Z,94083.07
2019-01-29T05:43:04.436Z,94091.47
2019-01-29T05:46:11.728Z,94083.89
2019-01-29T05:49:19.400Z,94088.08
2019-01-29T05:52:26.913Z,94096.05
2019-01-29T05:55:34.552Z,94094.15
2019-01-29T05:58:42.184Z,94098.06
2019-01-29T06:01:49.576Z,94098.74
2019-01-29T06:04:57.416Z,94098.66
2019-01-29T06:08:05.323Z,94099.55
2019-01-29T06:11:12.991Z,94102.41
2019-01-29T06:14:20.390Z,94107.55
2019-01-29T06:17:27.753Z,94102.27
2019-01-29T06:20:35.163Z,94111.08
2019-01-29T06:23:42.452Z,94107.39
2019-01-29T06:26:49.851Z,94116.86
2019-01-29T06:29:57.277Z,94118.92
2019-01-29T06:33:04.778Z,94119.81
2019-01-29T06:36:16.852Z,94119.10
2019-01-29T06:39:24.346Z,94126.95
2019-01-29T06:42:32.179Z,94125.70
2019-01-29T06:45:39.877Z,94130.13
2019-01-29T06:48:47.375Z,94132.21
2019-01-29T06:51:54.645Z,94134.91
2019-01-29T06:55:02.574Z,94141.25
2019-01-29T06:58:09.971Z,94143.14
2019-01-29T07:01:17.364Z,94146.64
2019-01-29T07:04:24.729Z,94145.52
2019-01-29T07:07:32.469Z,94149.34
2019-01-29T07:10:39.943Z,94152.27
2019-01-29T07:13:47.345Z,94155.08
2019-01-29T07:17:05.179Z,94153.73
2019-01-29T07:20:13.080Z,94164.72
2019-01-29T07:23:20.473Z,94158.75
2019-01-29T07:26:27.984Z,94168.00
2019-01-29T07:29:35.361Z,94161.73
2019-01-29T07:32:42.738Z,94175.09
2019-01-29T07:35:50.569Z,94171.30
2019-01-29T07:38:58.257Z,94171.30
2019-01-29T07:42:06.023Z,94178.33
2019-01-29T07:45:14.387Z,94180.91
2019-01-29T07:48:22.230Z,94188.72
2019-01-29T07:51:30.058Z,94182.55
2019-01-29T07:54:38.031Z,94186.94
2019-01-29T07:57:45.908Z,94183.55
2019-01-29T08:00:53.509Z,94182.91
2019-01-29T08:04:01.106Z,94188.52
2019-01-29T08:07:08.588Z,94186.30
2019-01-29T08:10:16.926Z,94194.92
2019-01-29T08:13:24.400Z,94195.45
2019-01-29T08:16:32.101Z,94195.05
2019-01-29T08:19:39.997Z,94196.28
2019-01-29T08:22:47.720Z,94197.33
2019-01-29T08:25:55.354Z,94199.36
2019-01-29T08:29:03.339Z,94201.67
2019-01-29T08:32:12.293Z,94198.34
2019-01-29T08:35:21.139Z,94197.83
2019-01-29T08:38:28.627Z,94199.48
2019-01-29T08:41:36.084Z,94209.50
2019-01-29T08:44:43.707Z,94211.00
2019-01-29T08:47:51.174Z,94206.81
2019-01-29T08:50:58.857Z,94209.71
2019-01-29T08:54:06.449Z,94205.76
2019-01-29T08:57:13.959Z,94209.02
2019-01-29T09:00:21.579Z,94197.69
2019-01-29T09:03:28.862Z,94204.25
2019-01-29T09:06:36.258Z,94201.50
2019-01-29T09:09:43.846Z,94195.68
2019-01-29T09:12:51.721Z,94193.56
2019-01-29T09:15:59.293Z,94199.73
2019-01-29T09:19:07.264Z,94192.87
2019-01-29T09:22:14.548Z,94192.25
2019-01-29T09:25:22.821Z,94185.50
2019-01-29T09:28:30.773Z,94191.77
2019-01-29T09:31:38.183Z,94190.69
2019-01-29T09:34:46.139Z,94194.68
2019-01-29T09:37:53.544Z,94189.09
2019-01-29T09:41:00.960Z,94191.33
2019-01-29T09:44:08.369Z,94194.73
2019-01-29T09:47:15.853Z,94194.88
2019-01-29T09:50:23.861Z,94188.46
2019-01-29T09:53:31.255Z,94182.08
2019-01-29T09:56:38.949Z,94184.55
2019-01-29T09:59:46.859Z,94183.06
2019-01-29T10:02:54.367Z,94190.17
2019-01-29T10:06:02.028Z,94187.98
2019-01-29T10:09:09.858Z,94192.73
2019-01-29T10:12:17.230Z,94185.57
2019-01-29T10:15:27.790Z,94184.27
2019-01-29T10:18:35.699Z,94173.80
2019-01-29T10:21:43.274Z,94172.72
2019-01-29T10:24:50.484Z,94167.53
2019-01-29T10:27:57.888Z,94165.02
2019-01-29T10:31:05.609Z,94155.08
2019-01-29T10:34:13.007Z,94145.55
2019-01-29T10:37:20.401Z,94140.98
2019-01-29T10:40:28.732Z,94136.44
2019-01-29T10:43:36.614Z,94138.73
2019-01-29T10:46:44.386Z,94130.50
2019-01-29T10:49:51.897Z,94120.27
2019-01-29T10:52:59.448Z,94112.19
2019-01-29T10:56:06.913Z,94110.06
2019-01-29T10:59:14.095Z,94100.63
2019-01-29T11:02:21.711Z,94101.61
2019-01-29T11:05:29.393Z,94095.92
2019-01-29T11:08:36.889Z,94092.29
2019-01-29T11:11:44.808Z,94087.87
2019-01-29T11:14:52.204Z,94079.42
2019-01-29T11:18:00.168Z,94077.70
2019-01-29T11:21:07.658Z,94074.02
2019-01-29T11:24:14.953Z,94074.02
2019-01-29T11:27:22.450Z,94072.44
2019-01-29T11:30:30.803Z,94069.38
2019-01-29T11:33:38.496Z,94068.72
2019-01-29T11:36:46.015Z,94059.62
2019-01-29T11:39:53.504Z,94062.23
2019-01-29T11:43:01.213Z,94049.38
2019-01-29T11:46:08.975Z,94048.98
2019-01-29T11:49:16.556Z,94039.95
2019-01-29T11:52:24.414Z,94039.08
2019-01-29T11:55:32.443Z,94035.67
2019-01-29T11:58:40.208Z,94027.71
2019-01-29T12:01:48.025Z,94030.80
2019-01-29T12:04:55.830Z,94030.34
2019-01-29T12:08:04.864Z,94026.80
2019-01-29T12:11:12.433Z,94019.83
2019-01-29T12:14:20.158Z,94016.78
2019-01-29T12:17:27.447Z,94016.36
2019-01-29T12:20:34.950Z,94007.56
2019-01-29T12:23:42.589Z,94002.52
2019-01-29T12:26:50.425Z,93995.92
2019-01-29T12:29:58.267Z,93995.22
2019-01-29T12:33:07.877Z,93987.35
2019-01-29T12:36:16.554Z,93980.52
2019-01-29T12:39:24.777Z,93979.45
2019-01-29T12:42:32.518Z,93972.28
2019-01-29T12:45:40.816Z,93973.92
2019-01-29T12:48:49.141Z,93971.70
2019-01-29T12:52:04.949Z,93968.05
2019-01-29T12:55:12.909Z,93960.67
2019-01-29T12:58:20.563Z,93956.94
2019-01-29T13:01:28.667Z,93955.05
2019-01-29T13:04:36.086Z,93950.20
2019-01-29T13:07:43.875Z,93942.23
2019-01-29T13:10:51.294Z,93934.55
2019-01-29T13:13:58.894Z,93934.06
2019-01-29T13:17:06.448Z,93931.69
2019-01-29T13:20:19.788Z,93925.02
2019-01-29T13:23:27.294Z,93922.31
2019-01-29T13:26:34.920Z,93913.63
2019-01-29T13:29:42.515Z,93910.42
2019-01-29T13:32:50.178Z,93905.16
2019-01-29T13:35:58.089Z,93905.09
2019-01-29T13:39:07.928Z,93899.55
2019-01-29T13:42:15.386Z,93897.16
2019-01-29T13:45:23.258Z,93887.27
2019-01-29T13:48:30.918Z,93884.70
2019-01-29T13:51:38.647Z,93879.02
2019-01-29T13:54:46.209Z,93881.03
2019-01-29T13:57:53.867Z,93874.14
2019-01-29T14:01:01.467Z,93864.12
2019-01-29T14:04:09.135Z,93860.52
2019-01-29T14:07:16.963Z,93865.52
2019-01-29T14:10:25.257Z,93861.34
2019-01-29T14:13:32.873Z,93856.97
2019-01-29T14:16:41.107Z,93856.91
2019-01-29T14:19:54.097Z,93852.84
2019-01-29T14:23:02.570Z,93847.45
2019-01-29T14:26:10.143Z,93844.38
2019-01-29T14:29:17.915Z,93839.28
2019-01-29T14:32:25.716Z,93833.14
2019-01-29T14:35:33.210Z,93830.09
2019-01-29T14:39:44.402Z,93831.29
2019-01-29T14:42:52.334Z,93828.89
2019-01-29T14:46:00.417Z,93829.63
2019-01-29T14:49:07.954Z,93818.78
2019-01-29T14:52:16.633Z,93819.47
2019-01-29T14:55:24.634Z,93819.50
2019-01-29T14:58:32.449Z,93811.10
2019-01-29T15:01:40.094Z,93810.99
2019-01-29T15:04:48.273Z,93805.58
2019-01-29T15:07:55.578Z,93802.61
2019-01-29T15:11:03.989Z,93792.84
2019-01-29T15:14:12.010Z,93792.42
2019-01-29T15:17:27.860Z,93782.05
2019-01-29T15:20:35.698Z,93782.34
2019-01-29T15:23:43.292Z,93781.92
2019-01-29T15:26:51.360Z,93780.59
2019-01-29T15:29:58.936Z,93771.44
2019-01-29T15:33:06.844Z,93777.49
2019-01-29T15:36:14.607Z,93773.05
2019-01-29T15:39:22.422Z,93779.00
2019-01-29T15:42:30.253Z,93774.89
2019-01-29T15:45:37.916Z,93773.16
2019-01-29T15:48:46.008Z,93776.25
2019-01-29T15:51:53.777Z,93772.30
2019-01-29T15:55:01.747Z,93761.20
2019-01-29T15:58:09.598Z,93763.68
2019-01-29T16:01:17.675Z,93764.28
2019-01-29T16:04:25.280Z,93760.70
2019-01-29T16:07:33.669Z,93758.20
2019-01-29T16:10:41.740Z,93755.34
2019-01-29T16:13:49.701Z,93750.24
2019-01-29T16:16:57.506Z,93744.31
2019-01-29T16:20:05.826Z,93746.84
2019-01-29T16:23:13.764Z,93736.41
2019-01-29T16:26:21.305Z,93730.19
2019-01-29T16:29:28.813Z,93726.34
2019-01-29T16:32:36.581Z,93721.72
2019-01-29T16:35:45.170Z,93721.78
2019-01-29T16:38:53.726Z,93719.40
2019-01-29T16:42:02.376Z,93720.95
2019-01-29T16:45:13.524Z,93714.41
2019-01-29T16:48:21.082Z,93724.81
2019-01-29T16:51:29.112Z,93723.28
2019-01-29T16:54:36.946Z,93720.56
2019-01-29T16:57:45.296Z,93712.03
2019-01-29T17:00:53.257Z,93707.00
2019-01-29T17:04:00.903Z,93699.44
2019-01-29T17:07:08.973Z,93697.39
2019-01-29T17:10:17.885Z,93700.85
2019-01-29T17:13:25.823Z,93696.53
2019-01-29T17:16:34.023Z,93694.67
2019-01-29T17:19:41.533Z,93695.28
2019-01-29T17:22:49.640Z,93679.76
2019-01-29T17:25:57.571Z,93683.02
2019-01-29T17:29:05.261Z,93677.63
2019-01-29T17:32:13.045Z,93678.17
2019-01-29T17:35:20.544Z,93673.13
2019-01-29T17:38:28.052Z,93670.15
2019-01-29T17:41:35.863Z,93667.57
2019-01-29T17:44:43.681Z,93661.84
2019-01-29T17:47:51.163Z,93659.09
2019-01-29T17:50:59.461Z,93651.05
2019-01-29T17:54:06.957Z,93649.94
2019-01-29T17:57:14.548Z,93652.44
2019-01-29T18:00:27.537Z,93648.70
2019-01-29T18:03:35.698Z,93648.09
2019-01-29T18:06:43.523Z,93644.22
2019-01-29T18:09:51.802Z,93644.82
2019-01-29T18:12:59.121Z,93634.31
2019-01-29T18:16:07.426Z,93629.89
2019-01-29T18:19:15.001Z,93631.38
2019-01-29T18:22:22.810Z,93628.52
2019-01-29T18:25:30.269Z,93613.58
2019-01-29T18:28:37.855Z,93611.50
2019-01-29T18:31:45.706Z,93605.89
2019-01-29T18:34:53.220Z,93609.18
2019-01-29T18:38:01.939Z,93606.41
2019-01-29T18:41:09.654Z,93596.52
2019-01-29T18:44:17.518Z,93588.39
2019-01-29T18:47:25.371Z,93585.90
2019-01-29T18:50:32.967Z,93584.08
2019-01-29T18:53:41.163Z,93577.35
2019-01-29T18:56:49.093Z,93568.84
2019-01-29T18:59:56.720Z,93570.69
2019-01-29T19:03:04.858Z,93558.45
2019-01-29T19:06:12.413Z,93555.20
2019-01-29T19:09:20.682Z,93542.45
2019-01-29T19:12:28.083Z,93538.06
2019-01-29T19:15:35.804Z,93535.21
2019-01-29T19:18:43.536Z,93528.12
2019-01-29T19:21:51.530Z,93528.27
2019-01-29T19:24:59.066Z,93521.78
2019-01-29T19:28:07.191Z,93515.28
2019-01-29T19:31:15.013Z,93509.36
2019-01-29T19:34:22.900Z,93499.57
2019-01-29T19:37:30.546Z,93495.81
2019-01-29T19:40:40.436Z,93495.06
2019-01-29T19:43:48.258Z,93490.56
2019-01-29T19:46:56.589Z,93485.97
2019-01-29T19:50:09.754Z,93485.12
2019-01-29T19:53:17.336Z,93488.43
2019-01-29T19:56:25.211Z,93474.14
2019-01-29T19:59:33.012Z,93471.55
2019-01-29T20:02:40.625Z,93466.83
2019-01-29T20:05:48.825Z,93455.69
2019-01-29T20:08:57.036Z,93458.78
2019-01-29T20:12:05.454Z,93445.80
2019-01-29T20:15:15.157Z,93443.59
2019-01-29T20:18:22.940Z,93430.52
2019-01-29T20:21:30.981Z,93430.32
2019-01-29T20:24:39.046Z,93427.22
2019-01-29T20:27:47.136Z,93422.28
2019-01-29T20:30:55.041Z,93420.59
2019-01-29T20:34:02.960Z,93411.83
2019-01-29T20:37:11.160Z,93409.45
2019-01-29T20:40:19.151Z,93410.72
2019-01-29T20:43:26.961Z,93403.63
2019-01-29T20:46:34.968Z,93399.33
2019-01-29T20:49:42.521Z,93398.61
2019-01-29T20:52:50.095Z,93397.01
2019-01-29T20:55:57.543Z,93385.68
2019-01-29T20:59:05.365Z,93382.56
2019-01-29T21:02:12.927Z,93378.89
2019-01-29T21:05:21.132Z,93371.98
2019-01-29T21:08:28.704Z,93364.28
2019-01-29T21:11:36.788Z,93363.56
2019-01-29T21:14:45.825Z,93352.82
2019-01-29T21:17:54.239Z,93345.72
2019-01-29T21:21:02.567Z,93345.88
2019-01-29T21:24:10.344Z,93343.14
2019-01-29T21:27:17.871Z,93332.61
2019-01-29T21:30:29.471Z,93333.91
2019-01-29T21:33:36.959Z,93325.09
2019-01-29T21:36:44.540Z,93318.63
2019-01-29T21:39:52.531Z,93311.64
2019-01-29T21:43:00.341Z,93303.31
2019-01-29T21:46:08.091Z,93294.17
2019-01-29T21:49:16.401Z,93288.61
2019-01-29T21:52:36.476Z,93286.02
2019-01-29T21:55:44.469Z,93282.00
2019-01-29T21:58:52.082Z,93273.95
2019-01-29T22:01:59.373Z,93272.67
2019-01-29T22:05:09.915Z,93268.87
2019-01-29T22:08:17.721Z,93264.20
2019-01-29T22:11:25.947Z,93259.64
2019-01-29T22:14:33.606Z,93255.41
2019-01-29T22:17:41.257Z,93256.86
2019-01-29T22:20:48.865Z,93257.91
2019-01-29T22:23:56.911Z,93250.07
2019-01-29T22:27:04.717Z,93240.98
2019-01-29T22:30:33.348Z,93236.80
2019-01-29T22:33:41.104Z,93233.53
2019-01-29T22:36:48.892Z,93235.22
2019-01-29T22:39:56.440Z,93221.74
2019-01-29T22:43:07.327Z,93222.52
2019-01-29T22:46:14.861Z,93217.87
2019-01-29T22:49:22.784Z,93215.68
2019-01-29T22:52:29.976Z,93207.27
2019-01-29T22:55:37.898Z,93202.68
2019-01-29T22:58:45.463Z,93194.86
2019-01-29T23:01:53.080Z,93191.52
2019-01-29T23:05:01.233Z,93190.75
2019-01-29T23:08:08.632Z,93186.22
2019-01-29T23:11:16.526Z,93178.69
2019-01-29T23:14:24.330Z,93171.34
2019-01-29T23:17:32.139Z,93164.25
2019-01-29T23:20:40.035Z,93159.44
2019-01-29T23:23:47.841Z,93150.34
2019-01-29T23:26:55.149Z,93145.30
2019-01-29T23:30:05.003Z,93150.30
2019-01-29T23:33:12.524Z,93134.83
2019-01-29T23:36:20.016Z,93136.63
2019-01-29T23:39:28.197Z,93129.84
2019-01-29T23:42:35.710Z,93135.12
2019-01-29T23:45:43.583Z,93127.83
2019-01-29T23:48:51.503Z,93119.53
2019-01-29T23:51:58.951Z,93109.06
2019-01-29T23:55:06.848Z,93109.80
2019-01-29T23:58:14.675Z,93099.75
